Archival Weather

South Haven Area Rgnl

South Haven, Michigan (KLWA)

Report from: Wednesday, December 6, 2023 8:15 AM EST
Current time: Saturday, February 24, 2024 10:56 AM EST

Current weather – Weather history – Daily summaries
Weather forecast

Temperature4.5°C (40.1°F)
Wind chill1.2°C (34.1°F)
Dew point-1.7°C (28.9°F)
Winds 8 kts (4.1 m/s, 9.2 mph) Northwest (320°)
Visibility10 mi. (16.1 km)
Clouds Ceiling: Overcast 4,700 ft. (1,433 m)
Altimeter30.22 in.Hg (1023 mB)
Relative humidity64 %
Density altitude-1,530 ft. (-466 m)
Remarks Fully automated report
Automated weather observing station with precipitation discriminator
Flight conditions Visual Meteorological Conditions
Raw dataKLWA 061315Z AUTO 32008KT 10SM OVC047 05/M02 A3022 RMK AO2 T00451017
An error has occurred. This application may no longer respond until reloaded. Reload 🗙